Manitowoc, Wisconsin
Current Conditions -  °F | °C
As of 4:56 AM on Wednesday 22 Oct 2014 (Local Time) from KMTW Reporting Station
Clear Clear  
Wind Chill: 31°   Ceiling: Unl
Heat Index: 31°   Visibility: 10mi
Dew Point: 30°   Wind: 0mph
Humidity: 96%   Direction: NA
Pressure: 30.34"   Gusts: NA
Location:  44.11°N, 87.66°W
Report Text: KMTW 220956Z AUTO 00000KT 10SM CLR M01/M01 A3034 RMK AO2 SLP300 T10061011 FZRANO
Loading
Personal Weather Stations






























Interactive Weather Map New forecast layout! Learn more

10-Day Weather Forecast

Advertisements
Track Severe Weather on mobile